createdAt,value
2018-01-15T00:00:28.723Z,1020.82
2018-01-15T00:01:09.288Z,1020.76
2018-01-15T00:01:49.841Z,1020.78
2018-01-15T00:02:30.395Z,1020.72
2018-01-15T00:03:11.148Z,1020.74
2018-01-15T00:03:51.719Z,1020.75
2018-01-15T00:04:32.290Z,1020.67
2018-01-15T00:05:12.858Z,1020.72
2018-01-15T00:05:53.431Z,1020.71
2018-01-15T00:06:33.982Z,1020.71
2018-01-15T00:07:14.536Z,1020.69
2018-01-15T00:07:55.108Z,1020.69
2018-01-15T00:08:35.656Z,1020.7
2018-01-15T00:09:16.206Z,1020.69
2018-01-15T00:09:56.760Z,1020.62
2018-01-15T00:10:37.307Z,1020.68
2018-01-15T00:11:17.887Z,1020.71
2018-01-15T00:11:58.462Z,1020.66
2018-01-15T00:12:39.020Z,1020.64
2018-01-15T00:13:19.570Z,1020.62
2018-01-15T00:14:00.135Z,1020.66
2018-01-15T00:14:40.706Z,1020.66
2018-01-15T00:15:21.263Z,1020.63
2018-01-15T00:16:01.848Z,1020.58
2018-01-15T00:16:42.406Z,1020.61
2018-01-15T00:17:22.964Z,1020.62
2018-01-15T00:18:03.518Z,1020.62
2018-01-15T00:18:44.076Z,1020.56
2018-01-15T00:19:24.631Z,1020.58
2018-01-15T00:20:05.190Z,1020.57
2018-01-15T00:20:45.751Z,1020.55
2018-01-15T00:21:26.304Z,1020.53
2018-01-15T00:22:06.879Z,1020.58
2018-01-15T00:22:47.430Z,1020.54
2018-01-15T00:23:27.982Z,1020.56
2018-01-15T00:24:08.540Z,1020.53
2018-01-15T00:24:49.106Z,1020.49
2018-01-15T00:25:29.712Z,1020.5
2018-01-15T00:26:10.283Z,1020.5
2018-01-15T00:26:50.866Z,1020.47
2018-01-15T00:27:31.452Z,1020.48
2018-01-15T00:28:12.008Z,1020.53
2018-01-15T00:28:52.570Z,1020.5
2018-01-15T00:29:33.139Z,1020.42
2018-01-15T00:30:13.734Z,1020.45
2018-01-15T00:30:54.287Z,1020.46
2018-01-15T00:31:34.853Z,1020.45
2018-01-15T00:32:15.416Z,1020.42
2018-01-15T00:32:55.978Z,1020.45
2018-01-15T00:33:36.534Z,1020.45
2018-01-15T00:34:17.119Z,1020.45
2018-01-15T00:34:57.680Z,1020.46
2018-01-15T00:35:38.237Z,1020.43
2018-01-15T00:36:18.805Z,1020.43
2018-01-15T00:36:59.361Z,1020.42
2018-01-15T00:37:39.926Z,1020.41
2018-01-15T00:38:20.491Z,1020.4
2018-01-15T00:39:01.110Z,1020.43
2018-01-15T00:39:41.662Z,1020.41
2018-01-15T00:40:22.216Z,1020.36
2018-01-15T00:41:02.781Z,1020.32
2018-01-15T00:41:43.350Z,1020.34
2018-01-15T00:42:23.905Z,1020.34
2018-01-15T00:43:04.457Z,1020.37
2018-01-15T00:43:45.056Z,1020.39
2018-01-15T00:44:25.652Z,1020.38
2018-01-15T00:45:06.234Z,1020.42
2018-01-15T00:45:46.807Z,1020.31
2018-01-15T00:46:27.374Z,1020.38
2018-01-15T00:47:07.941Z,1020.38
2018-01-15T00:47:48.494Z,1020.32
2018-01-15T00:48:29.050Z,1020.34
2018-01-15T00:49:09.601Z,1020.36
2018-01-15T00:49:50.173Z,1020.33
2018-01-15T00:50:30.800Z,1020.32
2018-01-15T00:51:11.355Z,1020.32
2018-01-15T00:51:51.909Z,1020.31
2018-01-15T00:52:32.468Z,1020.3
2018-01-15T00:53:13.027Z,1020.31
2018-01-15T00:53:53.588Z,1020.32
2018-01-15T00:54:34.142Z,1020.28
2018-01-15T00:55:14.697Z,1020.28
2018-01-15T00:55:55.252Z,1020.27
2018-01-15T00:56:35.807Z,1020.26
2018-01-15T00:57:16.358Z,1020.26
2018-01-15T00:57:56.921Z,1020.28
2018-01-15T00:58:37.479Z,1020.23
2018-01-15T00:59:18.041Z,1020.21
2018-01-15T00:59:58.594Z,1020.21
2018-01-15T01:00:39.156Z,1020.2
2018-01-15T01:01:19.711Z,1020.13
2018-01-15T01:02:00.263Z,1020.12
2018-01-15T01:02:40.813Z,1020.15
2018-01-15T01:03:21.375Z,1020.11
2018-01-15T01:04:01.936Z,1020.14
2018-01-15T01:04:42.492Z,1020.14
2018-01-15T01:05:23.049Z,1020.11
2018-01-15T01:06:03.599Z,1020.08
2018-01-15T01:06:44.149Z,1020.11
2018-01-15T01:07:24.705Z,1020.11
2018-01-15T01:08:05.264Z,1020.1
2018-01-15T01:08:45.834Z,1020.1
2018-01-15T01:09:26.395Z,1020.08
2018-01-15T01:10:06.959Z,1020.09
2018-01-15T01:10:47.519Z,1020.11
2018-01-15T01:11:28.081Z,1020.03
2018-01-15T01:12:08.630Z,1020.05
2018-01-15T01:12:49.182Z,1020
2018-01-15T01:13:29.738Z,1019.95
2018-01-15T01:14:10.304Z,1019.98
2018-01-15T01:14:50.864Z,1019.96
2018-01-15T01:15:31.434Z,1020.01
2018-01-15T01:16:12.006Z,1019.97
2018-01-15T01:16:52.577Z,1020
2018-01-15T01:17:33.142Z,1019.93
2018-01-15T01:18:13.708Z,1020
2018-01-15T01:18:54.278Z,1019.96
2018-01-15T01:19:34.837Z,1019.92
2018-01-15T01:20:15.397Z,1019.94
2018-01-15T01:20:55.963Z,1019.92
2018-01-15T01:21:36.532Z,1019.94
2018-01-15T01:22:17.111Z,1019.9
2018-01-15T01:22:57.667Z,1019.87
2018-01-15T01:23:38.214Z,1019.87
2018-01-15T01:24:18.812Z,1019.83
2018-01-15T01:24:59.373Z,1019.87
2018-01-15T01:25:39.943Z,1019.79
2018-01-15T01:26:20.534Z,1019.81
2018-01-15T01:27:01.093Z,1019.79
2018-01-15T01:27:41.642Z,1019.73
2018-01-15T01:28:22.199Z,1019.76
2018-01-15T01:29:02.751Z,1019.8
2018-01-15T01:29:43.311Z,1019.82
2018-01-15T01:30:23.864Z,1019.8
2018-01-15T01:31:04.416Z,1019.82
2018-01-15T01:31:44.990Z,1019.78
2018-01-15T01:32:25.542Z,1019.75
2018-01-15T01:33:06.113Z,1019.72
2018-01-15T01:33:46.685Z,1019.7
2018-01-15T01:34:27.236Z,1019.76
2018-01-15T01:35:07.799Z,1019.72
2018-01-15T01:35:48.360Z,1019.69
2018-01-15T01:36:28.926Z,1019.7
2018-01-15T01:37:09.471Z,1019.67
2018-01-15T01:37:50.035Z,1019.65
2018-01-15T01:38:30.604Z,1019.64
2018-01-15T01:39:11.160Z,1019.63
2018-01-15T01:39:51.718Z,1019.64
2018-01-15T01:40:32.282Z,1019.65
2018-01-15T01:41:12.835Z,1019.63
2018-01-15T01:41:53.392Z,1019.59
2018-01-15T01:42:33.938Z,1019.6
2018-01-15T01:43:14.487Z,1019.58
2018-01-15T01:43:55.040Z,1019.53
2018-01-15T01:44:35.591Z,1019.51
2018-01-15T01:45:16.143Z,1019.47
2018-01-15T01:45:58.218Z,1019.52
2018-01-15T01:46:38.787Z,1019.44
2018-01-15T01:47:19.337Z,1019.45
2018-01-15T01:47:59.910Z,1019.43
2018-01-15T01:48:40.464Z,1019.41
2018-01-15T01:49:21.038Z,1019.43
2018-01-15T01:50:01.600Z,1019.39
2018-01-15T01:50:42.160Z,1019.38
2018-01-15T01:51:22.708Z,1019.38
2018-01-15T01:52:03.259Z,1019.41
2018-01-15T01:52:43.805Z,1019.38
2018-01-15T01:53:24.370Z,1019.37
2018-01-15T01:54:04.928Z,1019.33
2018-01-15T01:54:45.483Z,1019.34
2018-01-15T01:55:26.038Z,1019.41
2018-01-15T01:56:06.585Z,1019.31
2018-01-15T01:56:47.145Z,1019.26
2018-01-15T01:57:27.714Z,1019.28
2018-01-15T01:58:08.283Z,1019.28
2018-01-15T01:58:48.846Z,1019.25
2018-01-15T01:59:29.401Z,1019.26
2018-01-15T02:00:09.956Z,1019.31
2018-01-15T02:00:50.511Z,1019.23
2018-01-15T02:01:31.079Z,1019.18
2018-01-15T02:02:11.636Z,1019.18
2018-01-15T02:02:52.191Z,1019.15
2018-01-15T02:03:32.744Z,1019.21
2018-01-15T02:04:13.356Z,1019.15
2018-01-15T02:04:53.878Z,1019.16
2018-01-15T02:05:34.438Z,1019.11
2018-01-15T02:06:14.992Z,1019.06
2018-01-15T02:06:55.553Z,1019.11
2018-01-15T02:07:36.110Z,1019.07
2018-01-15T02:08:16.660Z,1019.04
2018-01-15T02:08:57.215Z,1019.02
2018-01-15T02:09:37.788Z,1019.03
2018-01-15T02:10:18.346Z,1019.02
2018-01-15T02:10:58.915Z,1019.05
2018-01-15T02:11:39.466Z,1019.05
2018-01-15T02:12:20.026Z,1018.99
2018-01-15T02:13:00.577Z,1019.04
2018-01-15T02:13:41.142Z,1019.01
2018-01-15T02:14:21.701Z,1018.98
2018-01-15T02:15:02.258Z,1018.95
2018-01-15T02:15:42.820Z,1018.93
2018-01-15T02:16:23.378Z,1018.94
2018-01-15T02:17:03.940Z,1018.93
2018-01-15T02:17:44.501Z,1018.91
2018-01-15T02:18:25.053Z,1018.9
2018-01-15T02:19:05.605Z,1018.86
2018-01-15T02:19:46.164Z,1018.85
2018-01-15T02:20:26.710Z,1018.83
2018-01-15T02:21:07.264Z,1018.86
2018-01-15T02:21:47.831Z,1018.82
2018-01-15T02:22:28.388Z,1018.84
2018-01-15T02:23:08.947Z,1018.79
2018-01-15T02:23:49.509Z,1018.83
2018-01-15T02:24:30.065Z,1018.78
2018-01-15T02:25:10.631Z,1018.83
2018-01-15T02:25:51.190Z,1018.84
2018-01-15T02:26:31.741Z,1018.82
2018-01-15T02:27:12.297Z,1018.84
2018-01-15T02:27:52.850Z,1018.86
2018-01-15T02:28:33.407Z,1018.86
2018-01-15T02:29:13.946Z,1018.84
2018-01-15T02:29:54.511Z,1018.82
2018-01-15T02:30:35.080Z,1018.77
2018-01-15T02:31:15.631Z,1018.72
2018-01-15T02:31:56.204Z,1018.77
2018-01-15T02:32:36.758Z,1018.77
2018-01-15T02:33:17.315Z,1018.66
2018-01-15T02:33:57.864Z,1018.68
2018-01-15T02:34:38.420Z,1018.7
2018-01-15T02:35:18.968Z,1018.67
2018-01-15T02:35:59.515Z,1018.66
2018-01-15T02:36:40.075Z,1018.61
2018-01-15T02:37:20.644Z,1018.63
2018-01-15T02:38:01.202Z,1018.61
2018-01-15T02:38:41.772Z,1018.65
2018-01-15T02:39:22.327Z,1018.66
2018-01-15T02:40:02.891Z,1018.65
2018-01-15T02:40:43.471Z,1018.67
2018-01-15T02:41:24.030Z,1018.7
2018-01-15T02:42:04.595Z,1018.68
2018-01-15T02:42:45.144Z,1018.68
2018-01-15T02:43:25.703Z,1018.68
2018-01-15T02:44:06.254Z,1018.67
2018-01-15T02:44:46.807Z,1018.61
2018-01-15T02:45:27.359Z,1018.61
2018-01-15T02:46:07.931Z,1018.58
2018-01-15T02:46:48.486Z,1018.54
2018-01-15T02:47:29.054Z,1018.56
2018-01-15T02:48:09.613Z,1018.47
2018-01-15T02:48:50.187Z,1018.51
2018-01-15T02:49:30.737Z,1018.55
2018-01-15T02:50:11.298Z,1018.48
2018-01-15T02:50:51.866Z,1018.56
2018-01-15T02:51:32.431Z,1018.52
2018-01-15T02:52:12.992Z,1018.5
2018-01-15T02:52:53.553Z,1018.43
2018-01-15T02:53:34.125Z,1018.49
2018-01-15T02:54:14.683Z,1018.52
2018-01-15T02:54:55.240Z,1018.52
2018-01-15T02:55:35.813Z,1018.49
2018-01-15T02:56:16.396Z,1018.48
2018-01-15T02:56:56.954Z,1018.49
2018-01-15T02:57:37.519Z,1018.47
2018-01-15T02:58:18.080Z,1018.44
2018-01-15T02:58:58.630Z,1018.48
2018-01-15T02:59:39.188Z,1018.42
2018-01-15T03:00:19.742Z,1018.4
2018-01-15T03:01:00.320Z,1018.36
2018-01-15T03:01:40.874Z,1018.35
2018-01-15T03:02:21.428Z,1018.35
2018-01-15T03:03:01.983Z,1018.36
2018-01-15T03:03:42.560Z,1018.31
2018-01-15T03:04:23.113Z,1018.3
2018-01-15T03:05:03.672Z,1018.28
2018-01-15T03:05:44.227Z,1018.33
2018-01-15T03:06:24.800Z,1018.32
2018-01-15T03:07:05.401Z,1018.24
2018-01-15T03:07:45.970Z,1018.23
2018-01-15T03:08:26.521Z,1018.29
2018-01-15T03:09:07.072Z,1018.19
2018-01-15T03:09:47.638Z,1018.23
2018-01-15T03:10:28.195Z,1018.19
2018-01-15T03:11:08.747Z,1018.21
2018-01-15T03:11:49.305Z,1018.18
2018-01-15T03:12:29.867Z,1018.13
2018-01-15T03:13:10.426Z,1018.15
2018-01-15T03:13:50.981Z,1018.18
2018-01-15T03:14:31.533Z,1018.15
2018-01-15T03:15:12.092Z,1018.06
2018-01-15T03:15:52.649Z,1018.1
2018-01-15T03:16:33.238Z,1018.08
2018-01-15T03:17:13.795Z,1018.09
2018-01-15T03:17:54.361Z,1018.1
2018-01-15T03:18:34.906Z,1018.08
2018-01-15T03:19:15.463Z,1018.16
2018-01-15T03:19:56.013Z,1018.11
2018-01-15T03:20:36.567Z,1018.11
2018-01-15T03:21:17.130Z,1018.13
2018-01-15T03:21:57.695Z,1018.09
2018-01-15T03:22:38.276Z,1018.08
2018-01-15T03:23:18.836Z,1018.12
2018-01-15T03:23:59.397Z,1018.08
2018-01-15T03:24:39.964Z,1018.06
2018-01-15T03:25:20.529Z,1018.08
2018-01-15T03:26:01.090Z,1018.02
2018-01-15T03:26:41.649Z,1018.02
2018-01-15T03:27:22.209Z,1017.98
2018-01-15T03:28:02.795Z,1017.98
2018-01-15T03:28:43.348Z,1017.93
2018-01-15T03:29:23.903Z,1017.91
2018-01-15T03:30:04.467Z,1017.89
2018-01-15T03:30:45.021Z,1017.81
2018-01-15T03:31:25.582Z,1017.79
2018-01-15T03:32:06.144Z,1017.78
2018-01-15T03:32:46.715Z,1017.77
2018-01-15T03:33:27.301Z,1017.8
2018-01-15T03:34:07.852Z,1017.77
2018-01-15T03:34:48.420Z,1017.81
2018-01-15T03:35:28.983Z,1017.81
2018-01-15T03:36:09.535Z,1017.89
2018-01-15T03:36:50.091Z,1017.87
2018-01-15T03:37:30.654Z,1017.84
2018-01-15T03:38:11.216Z,1017.77
2018-01-15T03:38:51.783Z,1017.83
2018-01-15T03:39:32.345Z,1017.84
2018-01-15T03:40:12.901Z,1017.78
2018-01-15T03:40:53.455Z,1017.8
2018-01-15T03:41:34.014Z,1017.76
2018-01-15T03:42:14.577Z,1017.74
2018-01-15T03:42:55.133Z,1017.74
2018-01-15T03:43:35.709Z,1017.68
2018-01-15T03:44:16.262Z,1017.69
2018-01-15T03:44:56.818Z,1017.67
2018-01-15T03:45:37.384Z,1017.68
2018-01-15T03:46:17.946Z,1017.69
2018-01-15T03:46:58.496Z,1017.59
2018-01-15T03:47:39.058Z,1017.71
2018-01-15T03:48:19.609Z,1017.69
2018-01-15T03:49:00.173Z,1017.64
2018-01-15T03:49:40.752Z,1017.63
2018-01-15T03:50:21.320Z,1017.61
2018-01-15T03:51:01.880Z,1017.62
2018-01-15T03:51:42.449Z,1017.55
2018-01-15T03:52:23.000Z,1017.64
2018-01-15T03:53:03.573Z,1017.58
2018-01-15T03:53:44.124Z,1017.56
2018-01-15T03:54:24.696Z,1017.58
2018-01-15T03:55:05.256Z,1017.56
2018-01-15T03:55:45.801Z,1017.5
2018-01-15T03:56:26.356Z,1017.51
2018-01-15T03:57:06.915Z,1017.44
2018-01-15T03:57:47.453Z,1017.53
2018-01-15T03:58:28.005Z,1017.51
2018-01-15T03:59:08.558Z,1017.48
2018-01-15T03:59:49.121Z,1017.48
2018-01-15T04:00:29.674Z,1017.45
2018-01-15T04:01:10.241Z,1017.48
2018-01-15T04:01:50.806Z,1017.48
2018-01-15T04:02:31.379Z,1017.49
2018-01-15T04:03:11.943Z,1017.46
2018-01-15T04:03:52.508Z,1017.42
2018-01-15T04:04:33.067Z,1017.44
2018-01-15T04:05:13.675Z,1017.45
2018-01-15T04:05:54.232Z,1017.46
2018-01-15T04:06:34.826Z,1017.45
2018-01-15T04:07:15.380Z,1017.46
2018-01-15T04:07:55.955Z,1017.44
2018-01-15T04:08:36.511Z,1017.44
2018-01-15T04:09:17.107Z,1017.42
2018-01-15T04:09:57.671Z,1017.42
2018-01-15T04:10:38.235Z,1017.48
2018-01-15T04:11:18.797Z,1017.42
2018-01-15T04:11:59.371Z,1017.37
2018-01-15T04:12:39.930Z,1017.36
2018-01-15T04:13:20.477Z,1017.35
2018-01-15T04:14:01.060Z,1017.32
2018-01-15T04:14:41.644Z,1017.35
2018-01-15T04:15:22.226Z,1017.34
2018-01-15T04:16:02.776Z,1017.25
2018-01-15T04:16:43.348Z,1017.34
2018-01-15T04:17:23.911Z,1017.33
2018-01-15T04:18:04.467Z,1017.28
2018-01-15T04:18:45.033Z,1017.28
2018-01-15T04:19:25.621Z,1017.28
2018-01-15T04:20:06.224Z,1017.26
2018-01-15T04:20:46.804Z,1017.25
2018-01-15T04:21:27.353Z,1017.21
2018-01-15T04:22:07.925Z,1017.31
2018-01-15T04:22:48.478Z,1017.32
2018-01-15T04:23:29.057Z,1017.25
2018-01-15T04:24:09.613Z,1017.28
2018-01-15T04:24:50.174Z,1017.3
2018-01-15T04:25:30.731Z,1017.28
2018-01-15T04:26:11.304Z,1017.31
2018-01-15T04:26:51.862Z,1017.25
2018-01-15T04:27:32.424Z,1017.29
2018-01-15T04:28:12.999Z,1017.24
2018-01-15T04:28:53.573Z,1017.23
2018-01-15T04:29:34.156Z,1017.18
2018-01-15T04:30:14.713Z,1017.15
2018-01-15T04:30:55.265Z,1017.14
2018-01-15T04:31:35.851Z,1017.18
2018-01-15T04:32:16.429Z,1017.11
2018-01-15T04:32:57.006Z,1017.08
2018-01-15T04:35:14.879Z,1017
2018-01-15T04:35:55.424Z,1016.93
2018-01-15T04:36:35.977Z,1016.99
2018-01-15T04:37:16.526Z,1016.99
2018-01-15T04:37:57.077Z,1016.93
2018-01-15T04:38:37.641Z,1016.93
2018-01-15T04:39:18.194Z,1016.89
2018-01-15T04:39:58.743Z,1016.92
2018-01-15T04:40:39.293Z,1016.9
2018-01-15T04:41:19.851Z,1016.9
2018-01-15T04:42:00.417Z,1016.92
2018-01-15T04:42:40.970Z,1016.93
2018-01-15T04:43:21.532Z,1016.85
2018-01-15T04:44:02.094Z,1016.86
2018-01-15T04:44:42.645Z,1016.84
2018-01-15T04:45:23.202Z,1016.88
2018-01-15T04:46:03.751Z,1016.83
2018-01-15T04:46:44.302Z,1016.81
2018-01-15T04:47:24.853Z,1016.85
2018-01-15T04:48:05.403Z,1016.84
2018-01-15T04:48:45.953Z,1016.82
2018-01-15T04:49:26.496Z,1016.79
2018-01-15T04:50:07.054Z,1016.78
2018-01-15T04:50:47.607Z,1016.81
2018-01-15T04:51:28.174Z,1016.75
2018-01-15T04:52:08.723Z,1016.74
2018-01-15T04:52:49.305Z,1016.73
2018-01-15T04:53:29.855Z,1016.73
2018-01-15T04:54:10.410Z,1016.72
2018-01-15T04:54:50.957Z,1016.72
2018-01-15T04:55:31.519Z,1016.69
2018-01-15T04:56:12.075Z,1016.68
2018-01-15T04:56:52.632Z,1016.63
2018-01-15T04:57:33.182Z,1016.66
2018-01-15T04:58:13.734Z,1016.64
2018-01-15T04:58:54.329Z,1016.61
2018-01-15T04:59:34.891Z,1016.64
2018-01-15T05:00:15.455Z,1016.57
2018-01-15T05:00:56.006Z,1016.59
2018-01-15T05:01:36.594Z,1016.56
2018-01-15T05:02:17.149Z,1016.56
2018-01-15T05:02:57.714Z,1016.5
2018-01-15T05:03:38.269Z,1016.49
2018-01-15T05:04:18.825Z,1016.56
2018-01-15T05:04:59.380Z,1016.57
2018-01-15T05:05:39.943Z,1016.56
2018-01-15T05:06:20.500Z,1016.5
2018-01-15T05:07:01.077Z,1016.55
2018-01-15T05:07:41.624Z,1016.56
2018-01-15T05:08:22.182Z,1016.51
2018-01-15T05:09:02.766Z,1016.57
2018-01-15T05:09:43.309Z,1016.49
2018-01-15T05:10:23.872Z,1016.48
2018-01-15T05:11:04.438Z,1016.5
2018-01-15T05:11:45.010Z,1016.52
2018-01-15T05:12:25.569Z,1016.52
2018-01-15T05:13:06.116Z,1016.46
2018-01-15T05:13:46.673Z,1016.51
2018-01-15T05:14:27.238Z,1016.49
2018-01-15T05:15:07.801Z,1016.43
2018-01-15T05:15:48.369Z,1016.47
2018-01-15T05:16:28.947Z,1016.46
2018-01-15T05:17:09.504Z,1016.45
2018-01-15T05:17:50.073Z,1016.42
2018-01-15T05:18:30.634Z,1016.4
2018-01-15T05:19:11.188Z,1016.4
2018-01-15T05:19:51.752Z,1016.4
2018-01-15T05:20:32.342Z,1016.44
2018-01-15T05:21:12.910Z,1016.38
2018-01-15T05:21:53.456Z,1016.41
2018-01-15T05:22:34.014Z,1016.36
2018-01-15T05:23:14.578Z,1016.39
2018-01-15T05:23:55.132Z,1016.35
2018-01-15T05:24:35.693Z,1016.34
2018-01-15T05:25:16.249Z,1016.3
2018-01-15T05:25:56.801Z,1016.33
2018-01-15T05:26:37.392Z,1016.41
2018-01-15T05:27:17.946Z,1016.32
2018-01-15T05:27:58.506Z,1016.36
2018-01-15T05:28:39.082Z,1016.29
2018-01-15T05:29:19.630Z,1016.32
2018-01-15T05:30:00.195Z,1016.32
2018-01-15T05:30:40.753Z,1016.24
2018-01-15T05:31:21.315Z,1016.23
2018-01-15T05:32:01.877Z,1016.27
2018-01-15T05:32:42.432Z,1016.2
2018-01-15T05:33:22.993Z,1016.2
2018-01-15T05:34:03.561Z,1016.19
2018-01-15T05:34:44.115Z,1016.21
2018-01-15T05:35:24.672Z,1016.21
2018-01-15T05:36:05.245Z,1016.17
2018-01-15T05:36:45.803Z,1016.2
2018-01-15T05:37:26.391Z,1016.2
2018-01-15T05:38:06.944Z,1016.19
2018-01-15T05:38:47.498Z,1016.17
2018-01-15T05:39:28.059Z,1016.18
2018-01-15T05:40:08.625Z,1016.13
2018-01-15T05:40:49.195Z,1016.15
2018-01-15T05:43:12.486Z,1016.15
2018-01-15T05:43:53.085Z,1016.17
2018-01-15T05:44:33.615Z,1016.22
2018-01-15T05:45:15.891Z,1016.15
2018-01-15T05:45:56.448Z,1016.19
2018-01-15T05:46:37.025Z,1016.14
2018-01-15T05:47:17.695Z,1016.13
2018-01-15T05:47:58.252Z,1016.11
2018-01-15T05:48:38.815Z,1016.15
2018-01-15T05:49:19.378Z,1016.11
2018-01-15T05:49:59.967Z,1016.14
2018-01-15T05:50:40.536Z,1016.13
2018-01-15T05:51:21.094Z,1016.11
2018-01-15T05:52:01.670Z,1016.11
2018-01-15T05:52:42.224Z,1016.09
2018-01-15T05:53:22.779Z,1016.1
2018-01-15T05:54:03.347Z,1016.12
2018-01-15T05:54:43.908Z,1016.07
2018-01-15T05:55:24.463Z,1016.02
2018-01-15T05:56:05.043Z,1016.06
2018-01-15T05:56:45.621Z,1016.07
2018-01-15T05:57:26.173Z,1016.04
2018-01-15T05:58:06.744Z,1015.98
2018-01-15T05:58:47.306Z,1016.01
2018-01-15T05:59:27.868Z,1015.99
2018-01-15T06:00:08.414Z,1015.96
2018-01-15T06:00:48.973Z,1015.96
2018-01-15T06:01:29.539Z,1015.99
2018-01-15T06:02:10.092Z,1016
2018-01-15T06:02:50.655Z,1015.96
2018-01-15T06:03:31.231Z,1015.93
2018-01-15T06:04:11.808Z,1015.94
2018-01-15T06:04:52.368Z,1015.94
2018-01-15T06:05:32.935Z,1015.91
2018-01-15T06:06:13.547Z,1015.96
2018-01-15T06:06:54.108Z,1015.96
2018-01-15T06:07:34.668Z,1015.95
2018-01-15T06:08:15.219Z,1015.96
2018-01-15T06:08:55.770Z,1015.9
2018-01-15T06:09:36.333Z,1015.88
2018-01-15T06:10:16.891Z,1015.89
2018-01-15T06:10:57.459Z,1015.91
2018-01-15T06:11:38.030Z,1015.89
2018-01-15T06:12:18.607Z,1015.92
2018-01-15T06:12:59.214Z,1015.88
2018-01-15T06:13:39.774Z,1015.87
2018-01-15T06:14:20.344Z,1015.85
2018-01-15T06:15:00.894Z,1015.86
2018-01-15T06:15:41.517Z,1015.84
2018-01-15T06:16:22.100Z,1015.83
2018-01-15T06:17:02.690Z,1015.83
2018-01-15T06:17:43.214Z,1015.79
2018-01-15T06:18:23.779Z,1015.8
2018-01-15T06:19:04.340Z,1015.83
2018-01-15T06:19:44.911Z,1015.82
2018-01-15T06:20:25.506Z,1015.8
2018-01-15T06:21:06.074Z,1015.81
2018-01-15T06:21:46.631Z,1015.85
2018-01-15T06:22:27.197Z,1015.81
2018-01-15T06:23:07.767Z,1015.8
2018-01-15T06:23:48.330Z,1015.79
2018-01-15T06:24:28.932Z,1015.76
2018-01-15T06:25:09.489Z,1015.77
2018-01-15T06:25:50.067Z,1015.8
2018-01-15T06:26:30.635Z,1015.73
2018-01-15T06:27:11.204Z,1015.64
2018-01-15T06:27:51.764Z,1015.74
2018-01-15T06:28:32.352Z,1015.73
2018-01-15T06:29:12.910Z,1015.72
2018-01-15T06:29:53.477Z,1015.7
2018-01-15T06:30:34.100Z,1015.64
2018-01-15T06:31:14.654Z,1015.68
2018-01-15T06:31:55.212Z,1015.7
2018-01-15T06:32:35.791Z,1015.65
2018-01-15T06:33:16.356Z,1015.6
2018-01-15T06:33:56.910Z,1015.61
2018-01-15T06:34:37.489Z,1015.69
2018-01-15T06:35:18.067Z,1015.67
2018-01-15T06:35:58.648Z,1015.57
2018-01-15T06:36:39.252Z,1015.62
2018-01-15T06:37:19.810Z,1015.61
2018-01-15T06:38:00.372Z,1015.61
2018-01-15T06:38:40.939Z,1015.59
2018-01-15T06:39:21.503Z,1015.57
2018-01-15T06:40:02.129Z,1015.55
2018-01-15T06:40:42.678Z,1015.59
2018-01-15T06:41:23.236Z,1015.57
2018-01-15T06:42:03.797Z,1015.65
2018-01-15T06:42:44.360Z,1015.58
2018-01-15T06:43:24.920Z,1015.67
2018-01-15T06:44:05.498Z,1015.63
2018-01-15T06:44:46.060Z,1015.64
2018-01-15T06:45:26.622Z,1015.62
2018-01-15T06:46:07.174Z,1015.65
2018-01-15T06:46:47.727Z,1015.61
2018-01-15T06:47:28.289Z,1015.57
2018-01-15T06:48:08.874Z,1015.55
2018-01-15T06:48:49.461Z,1015.56
2018-01-15T06:49:30.044Z,1015.55
2018-01-15T06:50:10.622Z,1015.53
2018-01-15T06:50:51.188Z,1015.58
2018-01-15T06:51:31.785Z,1015.51
2018-01-15T06:52:12.363Z,1015.5
2018-01-15T06:52:52.903Z,1015.47
2018-01-15T06:53:33.474Z,1015.43
2018-01-15T06:54:14.181Z,1015.49
2018-01-15T06:54:54.731Z,1015.49
2018-01-15T06:55:35.301Z,1015.43
2018-01-15T06:56:15.848Z,1015.48
2018-01-15T06:56:56.411Z,1015.5
2018-01-15T06:57:37.113Z,1015.5
2018-01-15T06:58:17.669Z,1015.44
2018-01-15T06:58:58.249Z,1015.41
2018-01-15T06:59:38.834Z,1015.43
2018-01-15T07:00:19.412Z,1015.49
2018-01-15T07:01:01.405Z,1015.5
2018-01-15T07:01:41.995Z,1015.39
2018-01-15T07:02:22.574Z,1015.4
2018-01-15T07:03:03.125Z,1015.47
2018-01-15T07:03:43.691Z,1015.46
2018-01-15T07:04:24.259Z,1015.4
2018-01-15T07:05:04.815Z,1015.46
2018-01-15T07:05:45.369Z,1015.42
2018-01-15T07:06:25.960Z,1015.44
2018-01-15T07:07:06.524Z,1015.37
2018-01-15T07:07:47.083Z,1015.49
2018-01-15T07:08:27.684Z,1015.46
2018-01-15T07:09:08.214Z,1015.41
2018-01-15T07:09:48.791Z,1015.4
2018-01-15T07:10:29.392Z,1015.45
2018-01-15T07:11:09.932Z,1015.45
2018-01-15T07:11:50.502Z,1015.3
2018-01-15T07:12:31.049Z,1015.38
2018-01-15T07:13:11.598Z,1015.44
2018-01-15T07:13:52.158Z,1015.41
2018-01-15T07:15:44.734Z,1015.28
2018-01-15T07:16:25.282Z,1015.33
2018-01-15T07:17:05.889Z,1015.31
2018-01-15T07:17:46.466Z,1015.35
2018-01-15T07:18:27.026Z,1015.26
2018-01-15T07:19:07.593Z,1015.22
2018-01-15T07:19:48.155Z,1015.18
2018-01-15T07:20:28.736Z,1015.22
2018-01-15T07:21:09.303Z,1015.24
2018-01-15T07:21:49.864Z,1015.21
2018-01-15T07:22:30.422Z,1015.18
2018-01-15T07:23:10.980Z,1015.16
2018-01-15T07:23:51.539Z,1015.18
2018-01-15T07:24:32.099Z,1015.23
2018-01-15T07:25:12.707Z,1015.2
2018-01-15T07:25:53.274Z,1015.13
2018-01-15T07:26:33.864Z,1015.09
2018-01-15T07:27:14.434Z,1015.14
2018-01-15T07:27:54.999Z,1015.21
2018-01-15T07:28:35.575Z,1015.21
2018-01-15T07:29:16.138Z,1015.22
2018-01-15T07:29:56.700Z,1015.12
2018-01-15T07:30:37.255Z,1015.16
2018-01-15T07:31:17.845Z,1015.07
2018-01-15T07:31:58.404Z,1015.03
2018-01-15T07:32:38.975Z,1015.16
2018-01-15T07:33:19.536Z,1015.16
2018-01-15T07:34:00.104Z,1015.18
2018-01-15T07:34:40.669Z,1015.24
2018-01-15T07:35:21.255Z,1015.13
2018-01-15T07:36:01.811Z,1015.04
2018-01-15T07:36:42.377Z,1015.09
2018-01-15T07:37:22.946Z,1015.06
2018-01-15T07:38:03.502Z,1015.12
2018-01-15T07:38:44.077Z,1015.17
2018-01-15T07:39:24.645Z,1015.1
2018-01-15T07:40:05.206Z,1015.07
2018-01-15T07:40:45.794Z,1015.07
2018-01-15T07:41:26.365Z,1015.04
2018-01-15T07:42:06.944Z,1015.06
2018-01-15T07:42:47.514Z,1015.07
2018-01-15T07:43:28.085Z,1015.13
2018-01-15T07:44:08.633Z,1015.07
2018-01-15T07:44:49.195Z,1015.04
2018-01-15T07:45:29.748Z,1015.04
2018-01-15T07:46:10.301Z,1015.06
2018-01-15T07:46:50.853Z,1015.07
2018-01-15T07:47:31.411Z,1015.09
2018-01-15T07:48:11.965Z,1015.1
2018-01-15T07:48:52.535Z,1015.08
2018-01-15T07:49:33.097Z,1015.09
2018-01-15T07:50:13.646Z,1015.07
2018-01-15T07:50:54.221Z,1015.11
2018-01-15T07:51:34.810Z,1015.07
2018-01-15T07:52:15.366Z,1015
2018-01-15T07:52:55.921Z,1015
2018-01-15T07:53:36.560Z,1014.97
2018-01-15T07:54:17.127Z,1015.01
2018-01-15T07:54:57.689Z,1014.99
2018-01-15T07:55:38.244Z,1014.97
2018-01-15T07:56:18.821Z,1014.99
2018-01-15T07:56:59.435Z,1015.01
2018-01-15T07:57:40.040Z,1014.92
2018-01-15T07:58:20.618Z,1014.99
2018-01-15T07:59:01.172Z,1014.92
2018-01-15T07:59:41.743Z,1014.9
2018-01-15T08:00:22.324Z,1014.9
2018-01-15T08:01:02.886Z,1014.79
2018-01-15T08:01:43.440Z,1014.84
2018-01-15T08:02:23.999Z,1014.8
2018-01-15T08:03:04.560Z,1014.81
2018-01-15T08:03:45.137Z,1014.75
2018-01-15T08:04:25.700Z,1014.74
2018-01-15T08:05:06.258Z,1014.71
2018-01-15T08:05:46.816Z,1014.77
2018-01-15T08:06:27.378Z,1014.75
2018-01-15T08:07:07.934Z,1014.78
2018-01-15T08:07:48.493Z,1014.77
2018-01-15T08:08:29.059Z,1014.76
2018-01-15T08:09:09.632Z,1014.76
2018-01-15T08:09:50.192Z,1014.76
2018-01-15T08:10:30.750Z,1014.7
2018-01-15T08:11:11.309Z,1014.71
2018-01-15T08:11:51.905Z,1014.66
2018-01-15T08:12:32.471Z,1014.67
2018-01-15T08:13:13.029Z,1014.65
2018-01-15T08:13:53.588Z,1014.63
2018-01-15T08:14:34.151Z,1014.64
2018-01-15T08:15:14.700Z,1014.63
2018-01-15T08:15:55.258Z,1014.6
2018-01-15T08:16:35.818Z,1014.56
2018-01-15T08:17:16.392Z,1014.63